Time;durP1;ratioP1;P1;durP2;ratioP2;P2;SDS_P1;SDS_P2;PMS_P1;PMS_P2;Temp;Humidity;BMP_temperature;BMP_pressure;BME280_temperature;BME280_humidity;BME280_pressure;Samples;Min_cycle;Max_cycle;Signal;HPM_P1;HPM_P2
2023/05/19 00:00:47;;;;;;;9.70;4.30;;;;;;;11.33;72.85;96045.78;4968131;28;20195;-89
2023/05/19 00:03:16;;;;;;;7.40;4.20;;;;;;;11.34;72.56;96040.44;4990005;28;20286;-89
2023/05/19 00:05:44;;;;;;;10.67;4.97;;;;;;;11.34;72.54;96037.88;4990444;28;20210;-89
2023/05/19 00:08:12;;;;;;;7.30;4.27;;;;;;;11.24;72.90;96036.47;4990273;28;20199;-89
2023/05/19 00:10:41;;;;;;;7.83;4.33;;;;;;;11.22;73.12;96031.47;4975966;28;20204;-88
2023/05/19 00:13:09;;;;;;;7.60;4.47;;;;;;;11.30;73.08;96026.28;4970498;28;20234;-89
2023/05/19 00:15:38;;;;;;;7.60;4.20;;;;;;;11.34;73.16;96030.13;4970794;28;20214;-90
2023/05/19 00:18:07;;;;;;;7.57;4.13;;;;;;;11.36;73.54;96020.44;4970771;28;20311;-90
2023/05/19 00:20:34;;;;;;;8.27;3.90;;;;;;;11.27;74.13;96018.09;4970335;28;20287;-89
2023/05/19 00:23:00;;;;;;;5.67;4.20;;;;;;;11.30;73.63;96023.72;4970527;28;20224;-88
2023/05/19 00:25:27;;;;;;;6.40;4.43;;;;;;;11.33;73.74;96022.56;4970334;28;20196;-89
2023/05/19 00:28:01;;;;;;;6.80;4.40;;;;;;;11.34;73.50;96019.81;4970399;28;20203;-89
2023/05/19 00:30:31;;;;;;;6.77;4.30;;;;;;;11.28;74.24;96015.34;4970649;28;20717;-88
2023/05/19 00:32:58;;;;;;;7.57;4.50;;;;;;;11.22;74.36;96015.19;4969827;28;20212;-88
2023/05/19 00:35:25;;;;;;;6.57;3.97;;;;;;;11.30;74.63;96013.41;4970867;28;20208;-89
2023/05/19 00:37:51;;;;;;;7.57;4.10;;;;;;;11.35;74.85;96013.66;4970488;28;20220;-89
2023/05/19 00:40:22;;;;;;;8.67;4.60;;;;;;;11.30;74.79;96015.97;4970601;28;20303;-89
2023/05/19 00:42:53;;;;;;;10.80;5.17;;;;;;;11.35;74.49;96012.91;4970046;28;20215;-88
2023/05/19 00:45:20;;;;;;;6.77;4.20;;;;;;;11.32;74.76;96010.66;4970051;28;20239;-88
2023/05/19 00:47:48;;;;;;;9.27;4.83;;;;;;;11.31;75.19;96003.88;4970037;28;20204;-88
2023/05/19 00:50:15;;;;;;;11.43;4.40;;;;;;;11.27;75.56;96015.50;4969831;28;20205;-89
2023/05/19 00:52:50;;;;;;;11.70;5.13;;;;;;;11.34;75.42;96003.56;4969890;28;20555;-90
2023/05/19 00:55:17;;;;;;;6.50;4.20;;;;;;;11.38;75.23;96007.38;4969903;28;20246;-89
2023/05/19 00:57:47;;;;;;;8.77;4.53;;;;;;;11.49;74.68;96001.03;4969813;28;20900;-89
2023/05/19 01:00:17;;;;;;;6.40;4.30;;;;;;;11.58;74.47;95995.63;4974989;28;20673;-90
2023/05/19 01:02:43;;;;;;;7.53;4.07;;;;;;;11.58;74.13;95994.81;4988385;28;20251;-90
2023/05/19 01:05:12;;;;;;;8.43;4.87;;;;;;;11.50;74.76;95992.31;4989449;28;20206;-91
2023/05/19 01:07:41;;;;;;;8.50;4.30;;;;;;;11.48;74.82;95994.28;4989585;28;20207;-91
2023/05/19 01:10:07;;;;;;;9.43;4.57;;;;;;;11.54;74.49;95996.16;4979544;28;20248;-91
2023/05/19 01:12:36;;;;;;;10.83;4.30;;;;;;;11.56;74.43;95987.25;4969418;28;20208;-91
2023/05/19 01:15:06;;;;;;;8.17;4.40;;;;;;;11.46;74.36;95996.22;4970136;28;20204;-92
2023/05/19 01:17:41;;;;;;;12.17;4.70;;;;;;;11.47;74.90;95997.81;4969545;28;20226;-88
2023/05/19 01:20:20;;;;;;;7.97;4.20;;;;;;;11.47;75.03;95997.81;4969755;28;20254;-89
2023/05/19 01:23:13;;;;;;;12.33;4.27;;;;;;;11.40;75.24;95995.13;4969436;28;20227;-89
2023/05/19 01:26:05;;;;;;;13.30;7.63;;;;;;;11.38;75.32;95997.06;4969676;28;20246;-90
2023/05/19 01:28:50;;;;;;;30.73;16.67;;;;;;;11.42;75.95;95990.59;4969555;28;20220;-90
2023/05/19 01:31:22;;;;;;;8.10;5.43;;;;;;;11.51;75.05;95992.16;4969535;28;20672;-90
2023/05/19 01:33:51;;;;;;;7.83;4.17;;;;;;;11.55;74.72;95995.97;4969228;28;20223;-90
2023/05/19 01:36:22;;;;;;;6.77;4.40;;;;;;;11.73;74.27;95999.09;4969557;28;20244;-91
2023/05/19 01:39:01;;;;;;;14.10;9.57;;;;;;;11.74;74.68;96007.59;4969447;28;20257;-90
2023/05/19 01:41:32;;;;;;;26.17;17.23;;;;;;;11.69;74.33;96005.56;4968882;28;20287;-90
2023/05/19 01:43:59;;;;;;;6.67;4.57;;;;;;;11.66;74.26;96008.47;4969217;28;20607;-91
2023/05/19 01:46:29;;;;;;;8.47;4.50;;;;;;;11.65;74.28;96001.72;4969061;28;20204;-91
2023/05/19 01:48:56;;;;;;;6.97;4.30;;;;;;;11.67;74.20;96007.50;4974729;28;20231;-90
2023/05/19 01:51:37;;;;;;;5.40;3.93;;;;;;;11.67;74.20;96002.34;4969203;28;20192;-91
2023/05/19 01:54:03;;;;;;;6.37;4.40;;;;;;;11.66;73.78;96005.09;4969817;28;20708;-90
2023/05/19 01:56:41;;;;;;;7.50;4.23;;;;;;;11.65;74.17;96006.06;4969100;28;20206;-91
2023/05/19 01:59:24;;;;;;;7.17;4.23;;;;;;;11.65;74.08;96008.66;4969267;28;20250;-91
2023/05/19 02:02:30;;;;;;;7.53;4.50;;;;;;;11.65;74.30;96004.28;4986167;28;20230;-90
2023/05/19 02:05:09;;;;;;;6.90;4.33;;;;;;;11.76;73.77;95998.75;4988710;28;20195;-91
2023/05/19 02:07:44;;;;;;;5.50;4.23;;;;;;;11.80;73.39;96001.78;4988814;28;20207;-92
2023/05/19 02:10:19;;;;;;;6.87;4.40;;;;;;;11.71;73.43;95998.47;4978428;28;20206;-91
2023/05/19 02:12:46;;;;;;;9.63;4.77;;;;;;;11.70;73.88;96001.22;4968904;28;20279;-88
2023/05/19 02:15:21;;;;;;;5.57;4.47;;;;;;;11.62;73.70;95994.31;4968919;28;20251;-88
2023/05/19 02:17:53;;;;;;;7.53;4.87;;;;;;;11.65;74.00;95993.97;4968987;28;20223;-89
2023/05/19 02:20:20;;;;;;;7.60;4.43;;;;;;;11.55;74.34;95990.00;4969251;28;20196;-90
2023/05/19 02:22:53;;;;;;;8.63;5.23;;;;;;;11.48;74.82;95992.50;4968984;28;20319;-91
2023/05/19 02:25:21;;;;;;;24.20;19.07;;;;;;;11.50;74.56;95987.16;4969286;28;20200;-90
2023/05/19 02:27:48;;;;;;;35.67;26.40;;;;;;;11.55;74.61;95980.50;4969138;28;20238;-90
2023/05/19 02:30:15;;;;;;;22.13;17.13;;;;;;;11.62;74.50;95985.78;4968837;28;20295;-91
2023/05/19 02:32:53;;;;;;;9.30;6.33;;;;;;;11.55;74.39;95988.22;4968947;28;20242;-90
2023/05/19 02:35:23;;;;;;;9.17;4.50;;;;;;;11.58;74.62;95987.09;4969282;28;20204;-90
2023/05/19 02:37:52;;;;;;;5.40;4.37;;;;;;;11.52;74.87;95983.44;4968395;28;20712;-90
2023/05/19 02:40:19;;;;;;;8.57;4.90;;;;;;;11.55;74.50;95983.06;4968627;28;20204;-90
2023/05/19 02:42:45;;;;;;;10.03;4.50;;;;;;;11.54;75.01;95978.94;4968597;28;20232;-90
2023/05/19 02:45:12;;;;;;;7.13;4.50;;;;;;;11.50;74.80;95989.75;4968601;28;20207;-91
2023/05/19 02:47:48;;;;;;;8.97;4.30;;;;;;;11.60;74.59;95983.38;4969453;28;20295;-91
2023/05/19 02:50:19;;;;;;;5.00;3.97;;;;;;;11.71;74.25;95982.19;4968994;28;20208;-91
2023/05/19 02:52:52;;;;;;;7.33;4.57;;;;;;;11.66;74.01;95980.09;4968666;28;20922;-92
2023/05/19 02:55:19;;;;;;;7.47;4.47;;;;;;;11.68;74.27;95982.50;4968524;28;20216;-90
2023/05/19 02:58:00;;;;;;;8.67;4.63;;;;;;;11.63;74.26;95975.28;4971959;28;20208;-91
2023/05/19 03:00:27;;;;;;;8.77;4.80;;;;;;;11.70;74.14;95978.78;4978564;28;20265;-90
2023/05/19 03:02:54;;;;;;;6.93;4.07;;;;;;;11.55;74.82;95971.97;4991225;28;20219;-91
2023/05/19 03:05:25;;;;;;;8.87;4.47;;;;;;;11.59;74.49;95976.59;4991776;28;20310;-90
2023/05/19 03:08:15;;;;;;;9.23;4.50;;;;;;;11.65;74.22;95975.94;4991637;28;20669;-92
2023/05/19 03:10:47;;;;;;;8.57;4.13;;;;;;;11.75;74.16;95965.34;4976550;28;20203;-89
2023/05/19 03:13:15;;;;;;;6.90;4.77;;;;;;;11.48;75.07;95964.13;4971969;28;20315;-88
2023/05/19 03:15:45;;;;;;;8.13;4.60;;;;;;;11.42;75.59;95968.19;4971776;28;20662;-89
2023/05/19 03:18:19;;;;;;;8.43;4.70;;;;;;;11.49;75.45;95965.75;4977888;28;20220;-89
2023/05/19 03:20:48;;;;;;;5.93;4.23;;;;;;;11.48;75.67;95969.28;4970280;28;20195;-88
2023/05/19 03:23:16;;;;;;;6.50;4.27;;;;;;;11.48;75.33;95971.88;4971399;28;20220;-89
2023/05/19 03:26:03;;;;;;;5.47;3.73;;;;;;;11.49;75.83;95960.59;4971866;28;20193;-89
2023/05/19 03:28:38;;;;;;;9.40;4.70;;;;;;;11.42;75.73;95967.38;4971287;28;20197;-89
2023/05/19 03:31:11;;;;;;;6.17;4.37;;;;;;;11.37;76.48;95972.25;4971124;28;20207;-89
2023/05/19 03:33:37;;;;;;;7.23;3.97;;;;;;;11.34;76.44;95967.47;4971866;28;20304;-89
2023/05/19 03:36:14;;;;;;;9.97;4.57;;;;;;;11.40;76.11;95966.75;4971313;28;20204;-89
2023/05/19 03:38:45;;;;;;;6.87;4.70;;;;;;;11.36;76.10;95963.72;4971323;28;20231;-89
2023/05/19 03:41:21;;;;;;;8.70;4.30;;;;;;;11.23;76.78;95954.94;4970697;28;20197;-89
2023/05/19 03:43:49;;;;;;;7.57;4.83;;;;;;;11.16;77.58;95959.22;4968218;28;20707;-89
2023/05/19 03:46:15;;;;;;;10.87;4.73;;;;;;;11.21;77.65;95952.53;4970281;28;20224;-89
2023/05/19 03:48:42;;;;;;;7.87;4.60;;;;;;;11.27;77.43;95953.63;4973315;28;20203;-89
2023/05/19 03:57:53;;;;;;;6.10;4.33;;;;;;;11.37;76.32;95960.16;4966945;28;20555;-88
2023/05/19 04:00:20;;;;;;;7.30;4.47;;;;;;;11.29;76.99;95960.22;4977223;28;20595;-89
2023/05/19 04:02:56;;;;;;;8.03;5.00;;;;;;;11.13;77.98;95962.91;4971565;28;20255;-86
2023/05/19 04:05:22;;;;;;;10.53;4.90;;;;;;;11.10;78.60;95957.31;4970829;28;20597;-88
2023/05/19 04:07:49;;;;;;;11.43;4.77;;;;;;;11.14;78.51;95959.38;4972260;28;20280;-89
2023/05/19 04:10:16;;;;;;;7.63;4.63;;;;;;;11.14;78.62;95949.06;4974740;28;20250;-88
2023/05/19 04:12:42;;;;;;;9.20;5.33;;;;;;;11.19;78.17;95946.75;4974456;28;20199;-90
2023/05/19 04:15:11;;;;;;;8.07;4.80;;;;;;;11.08;78.78;95954.88;4974968;28;20212;-88
2023/05/19 04:17:38;;;;;;;8.00;4.60;;;;;;;11.02;79.34;95956.38;4974212;28;20733;-91
2023/05/19 04:20:05;;;;;;;11.60;5.10;;;;;;;10.95;79.62;95954.66;4974476;28;20616;-90
2023/05/19 04:22:32;;;;;;;13.40;5.53;;;;;;;10.94;80.08;95951.28;4974204;28;20200;-88
2023/05/19 04:24:59;;;;;;;9.13;4.40;;;;;;;10.96;79.99;95954.47;4973688;28;20204;-88
2023/05/19 04:27:26;;;;;;;8.23;4.27;;;;;;;10.90;80.34;95952.56;4973912;28;20547;-88
2023/05/19 04:29:53;;;;;;;9.60;4.63;;;;;;;10.97;80.39;95956.06;4973287;28;20223;-89
2023/05/19 04:32:21;;;;;;;7.17;4.90;;;;;;;10.96;80.87;95962.22;4972949;28;20207;-88
2023/05/19 04:34:47;;;;;;;7.67;4.50;;;;;;;10.91;80.82;95963.69;4973656;28;20224;-89
2023/05/19 04:37:15;;;;;;;7.63;4.97;;;;;;;10.91;81.50;95961.91;4973318;28;20200;-88
2023/05/19 04:39:43;;;;;;;8.23;4.77;;;;;;;10.89;81.09;95963.84;4972884;28;20842;-89
2023/05/19 04:42:10;;;;;;;10.97;5.13;;;;;;;10.88;81.68;95959.66;4973331;28;20697;-89
2023/05/19 04:44:38;;;;;;;8.13;4.90;;;;;;;10.82;81.88;95962.91;4973156;28;20856;-89
2023/05/19 04:47:07;;;;;;;10.07;4.67;;;;;;;10.91;82.13;95950.81;4974672;28;20214;-88
2023/05/19 04:49:38;;;;;;;8.37;4.50;;;;;;;10.86;81.47;95959.03;4975478;28;20255;-88
2023/05/19 04:52:06;;;;;;;6.00;4.80;;;;;;;10.82;82.25;95954.38;4974812;28;20207;-88
2023/05/19 04:57:54;;;;;;;8.83;5.03;;;;;;;11.03;81.93;95957.16;4985460;28;20198;-91
2023/05/19 05:07:06;;;;;;;8.37;4.63;;;;;;;10.97;82.04;95945.75;4970807;28;20198;-91
2023/05/19 05:09:32;;;;;;;8.93;5.00;;;;;;;10.98;81.88;95939.63;4979282;28;20207;-87
2023/05/19 05:11:59;;;;;;;8.97;4.60;;;;;;;11.04;82.08;95945.88;4989608;28;20196;-90
2023/05/19 05:14:32;;;;;;;7.37;4.80;;;;;;;11.09;81.63;95948.75;4974053;28;20227;-90
2023/05/19 05:17:00;;;;;;;9.67;4.63;;;;;;;11.16;81.45;95941.94;4971807;28;20696;-89
2023/05/19 05:19:27;;;;;;;6.87;4.60;;;;;;;11.26;81.27;95945.09;4973234;28;20228;-89
2023/05/19 05:21:54;;;;;;;8.37;4.80;;;;;;;11.30;81.65;95937.84;4973711;28;20227;-88
2023/05/19 05:24:23;;;;;;;8.80;5.10;;;;;;;11.45;80.97;95945.63;4972871;28;20228;-89
2023/05/19 05:26:50;;;;;;;8.57;5.20;;;;;;;11.46;80.86;95939.50;4977863;28;20196;-89
2023/05/19 05:29:16;;;;;;;7.13;4.77;;;;;;;11.56;80.84;95943.41;4972227;28;20716;-88
2023/05/19 05:31:43;;;;;;;11.27;5.73;;;;;;;11.74;80.05;95945.69;4972399;28;20204;-88
2023/05/19 05:34:10;;;;;;;8.43;5.30;;;;;;;11.70;79.29;95941.88;4972220;28;20227;-89
2023/05/19 05:36:37;;;;;;;8.77;4.73;;;;;;;11.72;78.97;95945.91;4971536;28;20426;-88
2023/05/19 05:39:04;;;;;;;7.57;4.60;;;;;;;11.73;79.06;95944.13;4972275;28;20227;-89
2023/05/19 05:41:35;;;;;;;7.37;4.87;;;;;;;11.74;79.03;95938.75;4972133;28;20259;-89
2023/05/19 05:44:01;;;;;;;7.60;4.80;;;;;;;11.77;78.79;95953.91;4971705;28;20227;-90
2023/05/19 05:46:28;;;;;;;8.27;4.87;;;;;;;11.81;78.41;95946.63;4971475;28;20196;-90
2023/05/19 05:48:55;;;;;;;10.43;5.73;;;;;;;11.72;78.88;95950.25;4971633;28;20208;-89
2023/05/19 05:51:22;;;;;;;8.03;4.77;;;;;;;11.74;79.39;95954.22;4971142;28;20208;-88
2023/05/19 05:58:03;;;;;;;10.27;5.23;;;;;;;11.78;78.65;95946.97;4975710;28;20207;-90
2023/05/19 06:03:53;;;;;;;8.20;5.30;;;;;;;11.99;77.35;95944.53;4968360;28;20725;-88
2023/05/19 06:06:27;;;;;;;7.57;5.13;;;;;;;12.27;77.50;95943.94;4972029;28;20221;-88
2023/05/19 06:09:00;;;;;;;6.97;4.60;;;;;;;12.29;76.56;95939.41;4972783;28;20270;-89
2023/05/19 06:11:27;;;;;;;9.87;4.90;;;;;;;12.31;75.84;95938.25;4972880;28;20180;-89
2023/05/19 06:13:58;;;;;;;9.37;5.30;;;;;;;12.35;76.16;95936.09;4952704;28;20223;-89
2023/05/19 06:16:26;;;;;;;9.23;4.80;;;;;;;12.44;75.77;95938.41;4953724;29;20205;-89
2023/05/19 06:18:55;;;;;;;8.00;4.60;;;;;;;12.64;75.51;95943.84;4952478;28;20221;-88
2023/05/19 06:21:22;;;;;;;8.53;4.77;;;;;;;12.56;74.21;95941.34;4954153;28;20289;-88
2023/05/19 06:23:48;;;;;;;7.60;4.37;;;;;;;12.46;74.64;95948.56;4963220;28;20235;-91
2023/05/19 06:26:15;;;;;;;6.50;4.40;;;;;;;12.41;74.90;95946.50;4971011;28;20212;-89
2023/05/19 06:29:06;;;;;;;8.43;4.60;;;;;;;12.59;74.82;95945.34;4973356;28;20299;-89
2023/05/19 06:31:34;;;;;;;6.33;4.77;;;;;;;12.71;73.67;95938.72;4973510;28;20585;-89
2023/05/19 06:34:02;;;;;;;9.70;4.83;;;;;;;12.79;73.22;95933.47;4976105;28;20266;-91
2023/05/19 06:36:28;;;;;;;6.40;4.40;;;;;;;12.84;73.07;95940.69;4973902;28;20353;-88
2023/05/19 06:38:55;;;;;;;6.57;4.30;;;;;;;12.85;73.24;95935.34;4974748;28;20768;-89
2023/05/19 06:41:21;;;;;;;8.17;4.57;;;;;;;12.88;72.13;95945.31;4974914;28;20207;-89
2023/05/19 06:43:49;;;;;;;9.33;4.43;;;;;;;12.80;71.70;95935.06;4974328;28;20220;-91
2023/05/19 06:46:16;;;;;;;6.67;3.87;;;;;;;12.86;72.35;95941.31;4975581;28;20192;-89
2023/05/19 06:48:43;;;;;;;6.70;4.07;;;;;;;12.91;71.48;95941.53;4974124;28;20204;-89
2023/05/19 06:51:14;;;;;;;7.07;3.80;;;;;;;12.89;70.48;95940.94;4974853;28;20210;-88
2023/05/19 06:53:41;;;;;;;6.87;4.60;;;;;;;12.80;70.52;95946.22;4975582;28;20660;-88
2023/05/19 06:56:17;;;;;;;5.90;3.97;;;;;;;12.85;71.56;95950.03;4975763;28;20300;-88
2023/05/19 06:58:44;;;;;;;7.13;4.20;;;;;;;12.88;71.34;95953.06;4975093;28;20267;-90
2023/05/19 07:01:11;;;;;;;5.67;4.00;;;;;;;12.97;71.07;95951.97;4974877;28;20211;-89
2023/05/19 07:03:39;;;;;;;7.63;4.90;;;;;;;12.99;70.49;95956.94;4974890;28;20227;-89
2023/05/19 07:06:05;;;;;;;6.73;3.93;;;;;;;13.05;70.32;95949.28;4976327;28;20278;-89
2023/05/19 07:08:35;;;;;;;4.97;4.07;;;;;;;13.05;69.93;95948.47;4974394;28;20212;-90
2023/05/19 07:11:02;;;;;;;4.67;3.80;;;;;;;13.12;70.02;95952.72;4973583;28;20196;-88
2023/05/19 07:13:28;;;;;;;5.50;4.07;;;;;;;13.29;69.90;95948.13;4960220;28;20237;-89
2023/05/19 07:15:55;;;;;;;4.97;3.63;;;;;;;13.47;68.84;95940.75;4987830;28;20214;-88
2023/05/19 07:18:22;;;;;;;5.73;4.33;;;;;;;13.54;68.33;95940.03;4972773;28;20215;-90
2023/05/19 07:20:48;;;;;;;6.63;3.97;;;;;;;13.55;67.62;95939.03;4972578;28;20318;-91
2023/05/19 07:23:15;;;;;;;7.13;3.80;;;;;;;13.60;67.53;95947.84;4973627;28;20729;-90
2023/05/19 07:25:43;;;;;;;4.40;3.53;;;;;;;13.66;67.12;95939.31;4973182;28;20219;-91
2023/05/19 07:28:09;;;;;;;5.03;3.67;;;;;;;13.58;66.55;95942.06;4973046;28;20208;-90
2023/05/19 07:30:36;;;;;;;5.77;3.93;;;;;;;13.45;66.67;95949.72;4972654;28;20227;-89
2023/05/19 07:33:03;;;;;;;5.07;3.80;;;;;;;13.40;66.75;95959.78;4972249;28;20266;-89
2023/05/19 07:35:29;;;;;;;4.27;3.57;;;;;;;13.34;66.66;95945.81;4972556;28;20673;-91
2023/05/19 07:37:56;;;;;;;4.30;3.70;;;;;;;13.32;67.22;95946.97;4972715;28;20294;-88
2023/05/19 07:40:22;;;;;;;7.73;4.63;;;;;;;13.39;67.07;95943.47;4972846;28;20334;-90
2023/05/19 07:42:50;;;;;;;5.33;3.83;;;;;;;13.43;68.12;95941.31;4971527;28;20208;-89
2023/05/19 07:45:17;;;;;;;5.17;4.03;;;;;;;13.29;68.54;95939.56;4973058;28;20208;-89
2023/05/19 07:47:51;;;;;;;7.20;4.40;;;;;;;13.37;68.34;95942.06;4973225;28;20263;-88
2023/05/19 07:50:17;;;;;;;6.53;4.80;;;;;;;13.41;68.43;95949.28;4971392;28;20224;-88
2023/05/19 07:52:44;;;;;;;7.13;4.43;;;;;;;13.54;68.40;95940.81;4970870;28;20818;-89
2023/05/19 07:55:12;;;;;;;8.27;4.67;;;;;;;13.70;67.95;95940.56;4970615;28;20215;-90
2023/05/19 07:57:38;;;;;;;4.80;4.20;;;;;;;13.79;67.65;95941.22;4970406;28;20196;-90
2023/05/19 08:00:10;;;;;;;7.63;4.37;;;;;;;13.75;68.03;95942.59;4970554;28;20228;-88
2023/05/19 08:02:37;;;;;;;4.73;4.20;;;;;;;13.56;66.85;95933.69;4969666;28;20192;-93
2023/05/19 08:05:04;;;;;;;6.07;4.70;;;;;;;13.65;67.69;95937.75;4971686;28;20883;-88
2023/05/19 08:07:30;;;;;;;9.87;5.17;;;;;;;13.68;67.07;95928.78;4972156;28;20260;-88
2023/05/19 08:09:57;;;;;;;5.37;4.60;;;;;;;13.75;66.69;95937.41;4963525;28;20208;-91
2023/05/19 08:12:23;;;;;;;7.10;4.30;;;;;;;13.78;66.95;95935.25;4971080;28;20212;-89
2023/05/19 08:14:50;;;;;;;8.13;4.50;;;;;;;13.70;66.48;95934.56;4970630;28;20224;-89
2023/05/19 08:17:18;;;;;;;5.47;4.77;;;;;;;13.44;66.63;95935.16;4971212;28;20204;-91
2023/05/19 08:19:47;;;;;;;6.33;5.30;;;;;;;13.33;67.73;95928.69;4973596;28;20417;-89
2023/05/19 08:22:14;;;;;;;8.33;5.30;;;;;;;13.35;68.03;95941.44;4972320;28;20204;-89
2023/05/19 08:24:42;;;;;;;6.57;5.00;;;;;;;13.35;67.84;95931.91;4972436;28;20224;-91
2023/05/19 08:27:08;;;;;;;6.33;5.20;;;;;;;13.36;68.30;95937.88;4979644;28;20235;-89
2023/05/19 08:29:35;;;;;;;6.10;4.87;;;;;;;13.36;68.23;95936.09;4972350;28;20200;-88
2023/05/19 08:32:04;;;;;;;5.97;4.80;;;;;;;13.33;68.29;95933.88;4970906;28;20673;-89
2023/05/19 08:34:34;;;;;;;8.23;5.30;;;;;;;13.38;68.40;95935.91;4972014;28;20222;-90
2023/05/19 08:37:01;;;;;;;6.57;5.80;;;;;;;13.38;68.27;95939.28;4971086;28;20330;-89
2023/05/19 08:39:28;;;;;;;5.73;4.90;;;;;;;13.34;68.38;95934.66;4971250;28;20287;-89
2023/05/19 08:41:55;;;;;;;5.80;5.20;;;;;;;13.33;68.48;95938.22;4969548;28;20224;-90
2023/05/19 08:44:24;;;;;;;9.20;5.90;;;;;;;13.30;68.44;95934.22;4966899;28;20275;-89
2023/05/19 08:47:03;;;;;;;7.27;5.73;;;;;;;13.22;68.82;95939.53;4966689;28;20204;-90
2023/05/19 08:49:40;;;;;;;8.50;5.53;;;;;;;13.29;69.25;95932.63;4971212;28;20219;-90
2023/05/19 08:52:17;;;;;;;6.00;5.40;;;;;;;13.39;68.21;95933.13;4970901;28;20203;-90
2023/05/19 08:54:53;;;;;;;12.77;5.70;;;;;;;13.47;68.32;95933.00;4970191;28;20230;-90
2023/05/19 08:57:22;;;;;;;7.00;5.20;;;;;;;13.41;68.27;95936.34;4969341;28;20235;-89
2023/05/19 08:59:54;;;;;;;6.50;5.43;;;;;;;13.42;68.21;95930.19;4971279;28;20215;-91
2023/05/19 09:02:22;;;;;;;5.57;5.07;;;;;;;13.26;68.16;95933.00;4968702;28;20196;-89
2023/05/19 09:04:56;;;;;;;5.70;5.13;;;;;;;13.31;68.86;95937.63;4975422;28;20219;-90
2023/05/19 09:07:25;;;;;;;5.73;4.90;;;;;;;13.29;69.07;95930.03;4971478;28;20214;-89
2023/05/19 09:10:02;;;;;;;6.20;4.80;;;;;;;13.32;67.93;95916.75;4969166;28;20200;-90
2023/05/19 09:12:30;;;;;;;6.47;4.60;;;;;;;13.36;68.16;95917.19;4971755;28;20670;-90
2023/05/19 09:14:57;;;;;;;7.23;4.70;;;;;;;13.32;68.05;95927.09;4968815;28;20231;-89
2023/05/19 09:17:26;;;;;;;7.17;5.03;;;;;;;13.36;68.63;95923.16;4969212;28;20571;-89
2023/05/19 09:19:54;;;;;;;7.40;4.93;;;;;;;13.37;68.30;95929.13;4968888;28;20232;-88
2023/05/19 09:22:22;;;;;;;6.07;5.30;;;;;;;13.35;68.10;95931.09;4968371;28;20235;-89
2023/05/19 09:24:52;;;;;;;7.40;5.33;;;;;;;13.43;68.03;95924.03;4970027;28;20227;-89
2023/05/19 09:27:25;;;;;;;6.77;5.30;;;;;;;13.51;67.82;95923.06;4969213;28;20200;-90
2023/05/19 09:29:56;;;;;;;8.10;5.47;;;;;;;13.60;67.91;95921.16;4952801;29;20216;-90
2023/05/19 09:32:28;;;;;;;6.03;4.80;;;;;;;13.58;66.98;95926.53;4952665;29;20201;-89
2023/05/19 09:34:55;;;;;;;7.03;5.27;;;;;;;13.62;66.83;95919.19;4952627;28;20260;-89
2023/05/19 09:37:30;;;;;;;6.30;5.60;;;;;;;13.62;65.96;95916.63;4951982;28;20201;-91
2023/05/19 09:39:57;;;;;;;5.80;5.20;;;;;;;13.74;66.39;95913.31;4951882;28;20223;-89
2023/05/19 09:49:13;;;;;;;14.13;9.07;;;;;;;13.74;66.12;95909.94;4959487;28;20567;-90
2023/05/19 09:51:41;;;;;;;7.83;6.07;;;;;;;13.89;66.06;95909.84;4969365;28;20206;-88
2023/05/19 09:54:15;;;;;;;6.03;5.20;;;;;;;13.97;65.86;95915.69;4969589;28;20255;-87
2023/05/19 09:56:43;;;;;;;9.77;5.77;;;;;;;13.91;65.79;95918.22;4968577;28;20200;-88
2023/05/19 09:59:12;;;;;;;9.77;8.77;;;;;;;13.96;65.80;95915.88;4969149;28;20208;-87
2023/05/19 10:01:40;;;;;;;26.30;23.17;;;;;;;14.05;65.60;95910.34;4973612;28;20231;-87
2023/05/19 10:04:17;;;;;;;;;;;;;;;;;;;;;
2023/05/19 10:06:53;;;;;;;5.70;5.10;;;;;;;13.99;64.49;95907.72;4970592;28;20229;-87
2023/05/19 10:09:26;;;;;;;5.55;5.05;;;;;;;13.86;64.84;95910.19;4968748;28;20207;-88
2023/05/19 10:12:02;;;;;;;5.80;5.20;;;;;;;13.81;65.12;95910.78;4974167;28;20919;-88
2023/05/19 10:14:29;;;;;;;8.68;5.60;;;;;;;13.75;64.90;95899.41;4974040;28;20231;-88
2023/05/19 10:16:57;;;;;;;7.50;5.93;;;;;;;13.90;65.41;95906.25;4981099;28;20211;-88
2023/05/19 10:19:25;;;;;;;8.30;5.97;;;;;;;13.94;65.09;95910.06;4991014;28;20860;-88
2023/05/19 10:21:55;;;;;;;8.90;6.15;;;;;;;13.91;64.93;95910.44;4976673;28;20693;-87
2023/05/19 10:24:22;;;;;;;9.33;7.83;;;;;;;13.75;64.87;95909.75;4972196;28;20228;-87
2023/05/19 10:26:54;;;;;;;6.70;6.10;;;;;;;13.77;65.23;95901.78;4972797;28;20204;-88
2023/05/19 10:29:25;;;;;;;7.55;6.68;;;;;;;13.62;66.19;95921.78;4971995;28;20617;-87
2023/05/19 10:31:53;;;;;;;7.72;6.97;;;;;;;13.60;66.03;95913.41;4970600;28;20192;-88
2023/05/19 10:34:49;;;;;;;7.23;6.53;;;;;;;13.63;66.87;95913.84;4970896;28;20598;-88
2023/05/19 10:37:29;;;;;;;7.23;6.10;;;;;;;13.67;66.70;95909.06;4966273;28;20227;-87
2023/05/19 10:39:57;;;;;;;9.63;6.00;;;;;;;13.60;66.58;95914.22;4967415;28;20333;-87
2023/05/19 10:42:42;;;;;;;7.73;7.03;;;;;;;13.70;66.07;95904.31;4968390;28;20211;-87
2023/05/19 10:45:15;;;;;;;8.77;7.10;;;;;;;13.80;66.42;95899.63;4968959;28;20200;-87
2023/05/19 10:47:42;;;;;;;7.10;6.40;;;;;;;13.84;65.90;95905.25;4968934;28;20204;-88
2023/05/19 10:50:17;;;;;;;6.63;6.03;;;;;;;13.86;66.66;95902.44;4968242;28;20211;-87
2023/05/19 10:52:44;;;;;;;8.25;7.25;;;;;;;13.81;66.51;95909.00;4968489;28;20238;-87
2023/05/19 10:55:16;;;;;;;9.10;7.20;;;;;;;13.84;65.85;95905.25;4971517;28;20775;-88
2023/05/19 10:57:55;;;;;;;11.95;9.05;;;;;;;13.97;66.00;95899.34;4970122;28;20295;-88
2023/05/19 11:00:30;;;;;;;42.73;32.73;;;;;;;14.10;65.67;95899.41;4970998;28;20220;-88
2023/05/19 11:03:25;;;;;;;10.90;8.30;;;;;;;14.03;65.52;95894.22;4970714;28;20279;-88
2023/05/19 11:05:51;;;;;;;11.77;8.80;;;;;;;14.04;65.44;95901.00;4971885;28;20215;-88
2023/05/19 11:08:35;;;;;;;8.50;7.50;;;;;;;14.13;66.26;95899.03;4971579;28;20290;-88
2023/05/19 11:11:14;;;;;;;7.20;6.50;;;;;;;14.10;64.82;95892.44;4971704;28;20207;-88
2023/05/19 11:13:42;;;;;;;8.52;7.55;;;;;;;14.09;65.94;95898.63;4968864;28;20301;-88
2023/05/19 11:16:12;;;;;;;7.40;6.70;;;;;;;14.11;64.87;95896.63;4970365;28;20733;-88
2023/05/19 11:18:41;;;;;;;9.63;8.00;;;;;;;14.05;66.33;95899.19;4970564;28;20201;-88
2023/05/19 11:21:09;;;;;;;9.73;7.30;;;;;;;13.93;65.61;95893.75;4971114;28;20235;-88
2023/05/19 11:23:38;;;;;;;12.17;8.30;;;;;;;14.06;65.72;95899.00;4971216;28;20220;-88
2023/05/19 11:26:11;;;;;;;8.67;7.20;;;;;;;14.19;65.26;95900.88;4952149;28;20643;-88
2023/05/19 11:28:40;;;;;;;7.30;6.60;;;;;;;14.23;64.51;95893.53;4952117;28;20263;-88
2023/05/19 11:31:09;;;;;;;7.80;7.00;;;;;;;14.22;65.28;95886.75;4952486;28;20242;-88
2023/05/19 11:33:35;;;;;;;8.00;7.13;;;;;;;14.15;64.86;95891.88;4951741;28;20738;-88
2023/05/19 11:36:05;;;;;;;7.88;6.85;;;;;;;14.13;64.99;95878.31;4951683;28;20260;-89
2023/05/19 11:38:32;;;;;;;7.68;6.70;;;;;;;14.31;65.14;95890.75;4956882;28;20207;-88
2023/05/19 11:41:16;;;;;;;13.73;9.97;;;;;;;14.43;64.41;95891.88;4970827;28;20286;-88
2023/05/19 11:43:47;;;;;;;12.18;10.65;;;;;;;14.48;65.19;95895.47;4970522;28;20224;-88
2023/05/19 11:46:19;;;;;;;9.80;8.10;;;;;;;14.54;64.10;95900.88;4971151;28;20203;-88
2023/05/19 11:48:50;;;;;;;7.68;6.97;;;;;;;14.44;64.39;95893.44;4970427;28;20237;-88
2023/05/19 11:51:17;;;;;;;9.63;7.28;;;;;;;14.43;65.79;95892.63;4970319;28;20658;-88
2023/05/19 11:53:44;;;;;;;56.35;47.50;;;;;;;14.54;64.86;95890.50;4970807;28;20236;-88
2023/05/19 11:59:02;;;;;;;8.10;7.30;;;;;;;14.42;64.89;95887.69;4970414;28;20208;-88
2023/05/19 12:05:28;;;;;;;8.10;7.13;;;;;;;14.11;64.87;95895.84;4998385;23;20243;-87
2023/05/19 12:14:10;;;;;;;7.43;6.53;;;;;;;14.19;65.07;95898.28;4939341;28;20241;-87
2023/05/19 12:16:42;;;;;;;8.40;7.20;;;;;;;14.18;66.60;95899.28;4950647;28;20690;-87
2023/05/19 12:19:09;;;;;;;9.50;7.63;;;;;;;14.16;65.92;95896.88;4968602;28;20724;-88
2023/05/19 12:21:37;;;;;;;9.48;7.68;;;;;;;14.20;66.07;95893.91;4970433;28;20650;-88
2023/05/19 12:24:29;;;;;;;8.60;7.80;;;;;;;14.06;65.58;95893.81;4969437;28;20307;-88
2023/05/19 12:27:20;;;;;;;7.57;6.60;;;;;;;14.06;65.89;95903.38;4970998;28;20215;-88
2023/05/19 12:29:52;;;;;;;9.03;8.00;;;;;;;14.13;65.63;95905.03;4969895;28;20834;-88
2023/05/19 12:32:27;;;;;;;9.35;8.00;;;;;;;14.12;65.11;95902.63;4970605;28;20263;-87